Time;durP1;ratioP1;P1;durP2;ratioP2;P2;SDS_P1;SDS_P2;PMS_P1;PMS_P2;Temp;Humidity;BMP_temperature;BMP_pressure;BME280_temperature;BME280_humidity;BME280_pressure;Samples;Min_cycle;Max_cycle;Signal;HPM_P1;HPM_P2
2023/11/12 00:01:06;;;;;;;106.00;85.40;;;;;;;6.66;100.00;99232.34;111089;1256;21977;-79
2023/11/12 00:04:29;;;;;;;;;;;;;;;;;;;;;
2023/11/12 00:08:33;;;;;;;96.30;76.10;;;;;;;6.62;100.00;99222.81;111950;1241;23069;-78
2023/11/12 00:11:51;;;;;;;89.30;68.90;;;;;;;6.74;100.00;99234.95;112185;1244;21988;-81
2023/11/12 00:15:32;;;;;;;90.60;73.00;;;;;;;6.81;100.00;99236.60;111733;1249;23626;-78
2023/11/12 00:18:40;;;;;;;85.90;69.40;;;;;;;6.87;100.00;99236.52;111497;1254;21957;-78
2023/11/12 00:21:36;;;;;;;86.80;66.80;;;;;;;6.94;100.00;99234.86;111272;1254;22910;-79
2023/11/12 00:24:45;;;;;;;90.20;68.70;;;;;;;6.92;100.00;99221.23;111359;1254;22038;-80
2023/11/12 00:27:34;;;;;;;82.90;67.20;;;;;;;7.03;100.00;99236.71;111232;1252;23545;-78
2023/11/12 00:30:13;;;;;;;78.50;64.10;;;;;;;7.06;100.00;99231.42;111149;1254;23249;-78
2023/11/12 00:32:51;;;;;;;80.20;63.30;;;;;;;7.08;100.00;99231.34;111080;1254;21967;-81
2023/11/12 00:35:27;;;;;;;74.70;61.70;;;;;;;7.09;100.00;99234.39;111130;1248;22386;-78
2023/11/12 00:38:07;;;;;;;72.80;61.30;;;;;;;7.10;100.00;99238.86;111074;1256;21983;-78
2023/11/12 00:40:47;;;;;;;75.50;60.20;;;;;;;7.12;100.00;99241.75;110777;1258;23053;-78
2023/11/12 00:43:27;;;;;;;71.90;58.90;;;;;;;7.12;100.00;99244.68;110759;1259;22833;-79
2023/11/12 00:46:17;;;;;;;69.10;54.90;;;;;;;7.12;100.00;99243.45;111295;1255;22002;-78
2023/11/12 00:48:58;;;;;;;68.10;54.60;;;;;;;7.13;100.00;99242.73;110905;1258;22451;-79
2023/11/12 00:51:36;;;;;;;64.20;52.30;;;;;;;7.14;100.00;99244.94;110907;1258;23038;-80
2023/11/12 00:54:08;;;;;;;64.80;53.10;;;;;;;7.09;100.00;99231.82;110540;1257;22455;-79
2023/11/12 00:56:42;;;;;;;60.30;51.30;;;;;;;7.11;100.00;99235.17;111238;1253;21981;-79
2023/11/12 00:59:19;;;;;;;60.30;48.70;;;;;;;7.20;100.00;99249.69;111766;1247;23674;-78
2023/11/12 01:01:51;;;;;;;;;;;;;;;7.20;100.00;99250.70;111743;1247;23028;-78
2023/11/12 01:04:23;;;;;;;55.50;43.20;;;;;;;7.13;100.00;99253.64;111893;1247;21987;-79
2023/11/12 01:06:59;;;;;;;53.40;42.80;;;;;;;7.14;100.00;99256.17;112102;1244;23337;-79
2023/11/12 01:09:42;;;;;;;50.50;42.30;;;;;;;7.17;100.00;99254.16;112115;1244;21995;-78
2023/11/12 01:12:42;;;;;;;;;;;;;;;;;;;;;
2023/11/12 01:15:15;;;;;;;43.60;38.00;;;;;;;7.22;100.00;99258.44;112781;1239;22819;-78
2023/11/12 01:17:52;;;;;;;42.70;37.40;;;;;;;7.23;100.00;99255.79;112991;1239;22828;-79
2023/11/12 01:20:37;;;;;;;42.10;37.40;;;;;;;7.24;100.00;99257.13;112856;1239;23703;-80
2023/11/12 01:23:38;;;;;;;43.60;35.10;;;;;;;7.24;100.00;99258.55;112739;1239;22945;-78
2023/11/12 01:26:18;;;;;;;43.90;36.40;;;;;;;7.24;100.00;99263.91;112592;1241;23439;-79
2023/11/12 01:29:12;;;;;;;37.70;32.40;;;;;;;7.23;100.00;99268.97;112712;1242;21958;-80
2023/11/12 01:32:02;;;;;;;35.90;32.00;;;;;;;7.20;100.00;99268.03;112508;1241;23107;-79
2023/11/12 01:34:42;;;;;;;37.00;31.10;;;;;;;7.19;100.00;99265.65;112261;1245;21962;-79
2023/11/12 01:37:33;;;;;;;34.50;29.20;;;;;;;7.17;100.00;99269.38;112267;1245;22004;-78
2023/11/12 01:40:17;;;;;;;32.70;28.50;;;;;;;7.15;100.00;99269.96;111581;1251;21968;-80
2023/11/12 01:43:03;;;;;;;33.60;29.30;;;;;;;7.14;100.00;99271.56;111637;1251;22001;-77
2023/11/12 01:45:51;;;;;;;31.60;28.00;;;;;;;7.11;100.00;99276.02;111540;1252;23925;-78
2023/11/12 01:48:34;;;;;;;33.30;26.90;;;;;;;7.08;100.00;99278.58;111302;1254;22086;-77
2023/11/12 01:51:11;;;;;;;28.90;25.80;;;;;;;7.05;100.00;99276.07;111264;1254;24344;-79
2023/11/12 01:53:49;;;;;;;30.30;25.60;;;;;;;7.04;100.00;99272.52;111523;1251;21980;-78
2023/11/12 01:56:30;;;;;;;29.00;23.80;;;;;;;7.01;100.00;99276.58;111637;1251;22981;-79
2023/11/12 01:59:08;;;;;;;26.50;23.30;;;;;;;6.98;100.00;99274.46;111300;1250;21990;-80
2023/11/12 02:01:44;;;;;;;25.10;22.30;;;;;;;6.95;100.00;99272.34;111152;1255;21982;-78
2023/11/12 02:04:20;;;;;;;27.90;22.60;;;;;;;6.94;100.00;99271.33;111543;1249;23605;-79
2023/11/12 02:06:59;;;;;;;28.00;22.50;;;;;;;6.95;100.00;99272.50;111242;1250;23031;-78
2023/11/12 02:09:42;;;;;;;25.00;21.50;;;;;;;6.96;100.00;99270.23;111415;1254;24308;-79
2023/11/12 02:12:17;;;;;;;26.20;21.00;;;;;;;6.96;100.00;99271.26;110836;1254;22143;-77
2023/11/12 02:14:49;;;;;;;27.20;22.00;;;;;;;6.98;100.00;99268.94;111182;1254;22449;-81
2023/11/12 02:17:20;;;;;;;;;;;;;;;6.99;100.00;99270.10;111364;1249;24331;-78
2023/11/12 02:20:01;;;;;;;26.50;20.40;;;;;;;6.91;100.00;99271.28;111964;1245;21956;-80
2023/11/12 02:22:38;;;;;;;25.00;21.40;;;;;;;6.90;100.00;99269.08;111525;1249;22049;-80
2023/11/12 02:25:21;;;;;;;26.70;21.10;;;;;;;6.93;100.00;99267.59;111856;1244;23882;-78
2023/11/12 02:28:12;;;;;;;25.30;20.40;;;;;;;6.95;100.00;99269.23;112292;1244;22835;-80
2023/11/12 02:30:54;;;;;;;24.80;21.30;;;;;;;6.96;100.00;99273.31;112120;1243;22481;-79
2023/11/12 02:33:27;;;;;;;24.00;21.50;;;;;;;6.98;100.00;99273.25;112338;1243;22738;-80
2023/11/12 02:36:07;;;;;;;23.30;20.90;;;;;;;7.01;100.00;99278.33;112554;1243;22104;-79
2023/11/12 02:38:51;;;;;;;25.20;20.90;;;;;;;7.03;100.00;99278.60;112410;1243;23746;-79
2023/11/12 02:41:30;;;;;;;25.10;20.80;;;;;;;7.06;100.00;99279.70;112741;1239;21941;-80
2023/11/12 02:44:03;;;;;;;25.00;21.10;;;;;;;7.08;100.00;99280.13;112699;1239;22398;-79
2023/11/12 02:46:44;;;;;;;27.20;21.90;;;;;;;7.04;100.00;99272.35;112762;1239;23820;-79
2023/11/12 02:49:53;;;;;;;24.40;21.00;;;;;;;7.12;100.00;99279.45;112597;1239;23030;-78
2023/11/12 02:52:34;;;;;;;21.80;19.60;;;;;;;7.11;100.00;99280.34;112776;1239;23573;-78
2023/11/12 02:55:09;;;;;;;23.60;21.00;;;;;;;7.13;100.00;99282.70;112780;1239;21955;-78
2023/11/12 02:57:50;;;;;;;23.30;20.70;;;;;;;7.15;100.00;99285.88;112785;1239;23844;-79
2023/11/12 03:00:31;;;;;;;23.10;20.10;;;;;;;7.17;100.00;99283.38;112258;1246;21995;-79
2023/11/12 03:03:12;;;;;;;25.10;20.60;;;;;;;7.21;100.00;99286.35;112017;1246;21974;-78
2023/11/12 03:05:50;;;;;;;21.80;19.70;;;;;;;7.21;100.00;99287.21;111859;1246;22732;-78
2023/11/12 03:08:34;;;;;;;20.90;18.80;;;;;;;7.22;100.00;99286.82;112536;1241;21954;-80
2023/11/12 03:11:07;;;;;;;24.90;18.80;;;;;;;7.23;100.00;99290.06;112641;1241;21962;-79
2023/11/12 03:13:45;;;;;;;21.90;19.60;;;;;;;7.24;100.00;99288.46;112617;1241;24278;-77
2023/11/12 03:16:25;;;;;;;21.10;18.90;;;;;;;7.24;100.00;99287.59;112269;1241;23108;-79
2023/11/12 03:19:00;;;;;;;21.90;18.00;;;;;;;7.26;100.00;99291.84;112356;1239;21991;-80
2023/11/12 03:21:41;;;;;;;21.60;19.40;;;;;;;7.28;100.00;99293.32;112670;1240;22012;-79
2023/11/12 03:24:35;;;;;;;23.90;19.30;;;;;;;7.29;100.00;99290.53;112727;1239;21956;-77
2023/11/12 03:27:35;;;;;;;21.60;19.40;;;;;;;7.29;100.00;99295.88;112463;1240;21947;-80
2023/11/12 03:30:23;;;;;;;23.10;20.30;;;;;;;7.29;100.00;99296.56;112626;1240;23575;-79
2023/11/12 03:33:07;;;;;;;20.70;17.70;;;;;;;7.32;100.00;99298.55;112702;1240;22396;-79
2023/11/12 03:35:45;;;;;;;19.50;17.60;;;;;;;7.34;100.00;99296.03;112882;1239;23033;-79
2023/11/12 03:38:35;;;;;;;20.80;16.60;;;;;;;7.35;100.00;99298.90;112572;1241;21952;-79
2023/11/12 03:41:17;;;;;;;20.60;18.50;;;;;;;7.38;100.00;99294.63;112579;1243;22851;-78
2023/11/12 03:43:48;;;;;;;20.50;17.50;;;;;;;7.40;100.00;99295.77;111979;1243;22040;-79
2023/11/12 03:46:20;;;;;;;20.40;17.90;;;;;;;7.42;100.00;99298.81;112517;1242;23620;-79
2023/11/12 03:49:04;;;;;;;21.30;17.60;;;;;;;7.42;100.00;99298.48;112533;1243;23599;-77
2023/11/12 03:51:52;;;;;;;20.50;18.40;;;;;;;7.44;100.00;99298.72;112395;1243;24421;-79
2023/11/12 03:54:37;;;;;;;17.90;15.70;;;;;;;7.46;100.00;99299.66;112358;1243;21980;-78
2023/11/12 03:57:15;;;;;;;19.20;17.10;;;;;;;7.50;100.00;99302.29;112650;1240;21967;-80
2023/11/12 04:00:07;;;;;;;30.10;18.90;;;;;;;7.52;100.00;99301.86;112781;1240;22022;-79
2023/11/12 04:02:48;;;;;;;;;;;;;;;7.53;100.00;99300.74;112267;1244;23021;-78
2023/11/12 04:05:25;;;;;;;23.40;19.50;;;;;;;7.46;100.00;99302.95;112343;1239;21953;-78
2023/11/12 04:08:00;;;;;;;22.60;20.10;;;;;;;7.47;100.00;99305.34;112944;1239;21970;-79
2023/11/12 04:10:32;;;;;;;21.90;19.90;;;;;;;7.50;100.00;99303.16;113111;1238;21959;-78
2023/11/12 04:13:16;;;;;;;22.10;19.90;;;;;;;7.51;100.00;99303.61;113008;1239;21975;-78
2023/11/12 04:15:56;;;;;;;24.00;21.70;;;;;;;7.52;100.00;99302.19;112398;1243;23719;-79
2023/11/12 04:18:30;;;;;;;23.50;21.00;;;;;;;7.55;100.00;99305.02;112458;1243;22155;-78
2023/11/12 04:21:10;;;;;;;23.00;21.00;;;;;;;7.57;100.00;99305.98;112561;1239;21976;-79
2023/11/12 04:23:49;;;;;;;25.10;22.80;;;;;;;7.58;100.00;99308.51;112015;1245;22100;-79
2023/11/12 04:26:33;;;;;;;23.60;21.60;;;;;;;7.58;100.00;99307.99;111684;1249;21959;-77
2023/11/12 04:29:19;;;;;;;24.80;22.50;;;;;;;7.60;100.00;99311.21;111829;1249;22222;-78
2023/11/12 04:32:00;;;;;;;23.70;21.20;;;;;;;7.61;100.00;99312.54;111071;1256;22333;-78
2023/11/12 04:34:37;;;;;;;23.70;21.30;;;;;;;7.55;100.00;99302.39;111349;1253;21996;-78
2023/11/12 04:37:19;;;;;;;25.20;22.10;;;;;;;7.64;100.00;99317.10;111328;1253;22575;-79
2023/11/12 04:40:06;;;;;;;23.00;20.70;;;;;;;7.63;100.00;99315.25;111385;1252;23716;-80
2023/11/12 04:42:52;;;;;;;24.30;21.30;;;;;;;7.63;100.00;99317.85;111584;1249;22006;-81
2023/11/12 04:45:31;;;;;;;22.40;20.50;;;;;;;7.63;100.00;99319.21;112059;1244;23059;-81
2023/11/12 04:48:11;;;;;;;23.60;20.70;;;;;;;7.64;100.00;99322.13;111942;1247;21985;-78
2023/11/12 04:50:45;;;;;;;22.90;20.10;;;;;;;7.65;100.00;99321.91;111780;1247;23347;-80
2023/11/12 04:53:37;;;;;;;22.80;20.60;;;;;;;7.64;100.00;99324.02;111695;1249;24310;-78
2023/11/12 04:56:24;;;;;;;23.00;20.60;;;;;;;7.63;100.00;99327.73;111839;1249;21956;-79
2023/11/12 04:58:56;;;;;;;24.50;22.20;;;;;;;7.62;100.00;99328.27;111697;1249;21969;-78
2023/11/12 05:01:43;;;;;;;23.00;20.80;;;;;;;7.61;100.00;99328.98;111419;1249;23700;-78
2023/11/12 05:04:30;;;;;;;24.00;22.00;;;;;;;7.65;100.00;99336.30;111252;1254;21972;-78
2023/11/12 05:07:32;;;;;;;23.50;21.00;;;;;;;7.61;100.00;99336.26;111692;1251;23063;-79
2023/11/12 05:10:21;;;;;;;23.80;21.40;;;;;;;7.60;100.00;99332.30;112037;1245;22984;-79
2023/11/12 05:13:35;;;;;;;23.30;21.00;;;;;;;7.60;100.00;99333.02;112014;1245;23691;-79
2023/11/12 05:16:13;;;;;;;23.10;20.80;;;;;;;7.61;100.00;99334.39;111487;1251;22333;-79
2023/11/12 05:19:00;;;;;;;23.30;21.20;;;;;;;7.62;100.00;99337.11;111340;1247;23031;-81
2023/11/12 05:22:07;;;;;;;23.90;21.50;;;;;;;7.63;100.00;99342.58;111958;1246;22026;-79
2023/11/12 05:25:15;;;;;;;23.90;21.40;;;;;;;7.59;100.00;99342.23;111518;1250;21971;-79
2023/11/12 05:28:05;;;;;;;27.00;24.50;;;;;;;7.60;100.00;99346.02;111555;1246;22734;-79
2023/11/12 05:30:46;;;;;;;24.40;22.00;;;;;;;7.62;100.00;99345.76;111312;1252;22059;-79
2023/11/12 05:33:38;;;;;;;24.20;21.70;;;;;;;7.63;100.00;99345.90;111431;1247;21968;-79
2023/11/12 05:36:16;;;;;;;23.50;21.30;;;;;;;7.62;100.00;99351.11;111932;1247;23675;-79
2023/11/12 05:39:01;;;;;;;24.50;22.00;;;;;;;7.61;100.00;99354.27;111912;1246;21958;-78
2023/11/12 05:41:43;;;;;;;23.20;20.80;;;;;;;7.61;100.00;99357.55;111567;1251;23794;-77
2023/11/12 05:44:16;;;;;;;23.40;21.20;;;;;;;7.63;100.00;99359.22;112224;1245;21984;-77
2023/11/12 05:46:48;;;;;;;23.70;21.30;;;;;;;7.64;100.00;99364.02;111645;1249;22726;-77
2023/11/12 05:49:23;;;;;;;23.80;21.60;;;;;;;7.64;100.00;99363.15;112152;1242;23592;-77
2023/11/12 05:52:07;;;;;;;22.50;20.20;;;;;;;7.63;100.00;99357.33;111731;1247;21967;-79
2023/11/12 05:54:45;;;;;;;23.50;21.00;;;;;;;7.60;100.00;99362.79;111697;1247;21957;-79
2023/11/12 05:57:22;;;;;;;22.90;20.90;;;;;;;7.61;100.00;99368.48;111806;1247;21962;-78
2023/11/12 05:59:54;;;;;;;23.40;21.30;;;;;;;7.61;100.00;99368.65;111988;1244;22517;-78
2023/11/12 06:02:36;;;;;;;25.80;23.40;;;;;;;7.63;100.00;99372.39;112341;1244;22175;-79
2023/11/12 06:05:09;;;;;;;22.80;20.70;;;;;;;7.60;100.00;99375.11;112552;1241;23007;-79
2023/11/12 06:07:54;;;;;;;24.20;21.90;;;;;;;7.58;100.00;99377.24;112558;1241;21974;-78
2023/11/12 06:10:35;;;;;;;22.00;20.10;;;;;;;7.55;100.00;99383.44;112905;1234;23718;-79
2023/11/12 06:13:21;;;;;;;22.80;20.70;;;;;;;7.54;100.00;99381.23;112644;1241;22552;-78
2023/11/12 06:15:54;;;;;;;21.40;19.40;;;;;;;7.56;100.00;99378.04;112850;1239;23700;-79
2023/11/12 06:18:35;;;;;;;20.40;18.70;;;;;;;7.58;100.00;99380.38;112682;1238;21961;-77
2023/11/12 06:21:14;;;;;;;19.70;18.10;;;;;;;7.59;100.00;99381.55;112525;1234;22020;-79
2023/11/12 06:23:57;;;;;;;20.50;18.50;;;;;;;7.49;100.00;99371.22;112545;1241;21955;-80
2023/11/12 06:26:30;;;;;;;19.20;17.50;;;;;;;7.57;100.00;99389.09;112887;1241;23052;-78
2023/11/12 06:29:05;;;;;;;17.20;15.50;;;;;;;7.56;100.00;99389.80;112961;1241;21984;-80
2023/11/12 06:31:37;;;;;;;15.80;14.40;;;;;;;7.56;100.00;99393.27;113101;1234;22379;-79
2023/11/12 06:34:11;;;;;;;15.70;14.30;;;;;;;7.55;100.00;99395.55;113316;1234;21934;-80
2023/11/12 06:36:47;;;;;;;16.70;15.10;;;;;;;7.54;100.00;99395.61;113510;1234;21978;-78
2023/11/12 06:39:18;;;;;;;18.00;16.20;;;;;;;7.54;100.00;99390.23;113223;1234;23679;-78
2023/11/12 06:41:57;;;;;;;18.10;16.30;;;;;;;7.55;100.00;99391.40;113310;1234;21954;-79
2023/11/12 06:44:34;;;;;;;17.60;15.90;;;;;;;7.57;100.00;99392.89;113611;1234;21937;-77
2023/11/12 06:47:14;;;;;;;19.20;17.30;;;;;;;7.57;100.00;99394.80;112710;1240;22868;-79
2023/11/12 06:50:02;;;;;;;18.90;17.40;;;;;;;7.58;100.00;99393.70;112784;1241;21951;-80
2023/11/12 06:52:51;;;;;;;19.10;17.20;;;;;;;7.57;100.00;99394.11;112728;1241;23029;-79
2023/11/12 06:56:06;;;;;;;17.50;15.80;;;;;;;7.55;100.00;99392.98;112307;1243;22723;-78
2023/11/12 06:59:06;;;;;;;16.70;15.30;;;;;;;7.56;100.00;99407.80;111518;1253;23645;-78
2023/11/12 07:01:41;;;;;;;17.80;16.20;;;;;;;7.56;100.00;99412.34;110917;1254;22064;-79
2023/11/12 07:04:28;;;;;;;17.20;15.60;;;;;;;7.59;100.00;99415.52;111028;1256;21854;-78
2023/11/12 07:07:09;;;;;;;17.20;15.50;;;;;;;7.61;100.00;99419.20;111302;1256;22754;-80
2023/11/12 07:10:00;;;;;;;;;;;;;;;;;;;;;
2023/11/12 07:12:56;;;;;;;18.10;16.40;;;;;;;7.71;100.00;99425.23;111230;1252;21972;-80
2023/11/12 07:15:49;;;;;;;15.90;14.40;;;;;;;7.73;100.00;99427.05;111781;1253;21968;-78
2023/11/12 07:18:33;;;;;;;18.70;17.00;;;;;;;7.77;100.00;99431.39;111387;1252;22217;-79
2023/11/12 07:21:28;;;;;;;15.90;14.40;;;;;;;7.82;100.00;99435.86;112477;1245;21951;-81
2023/11/12 07:24:14;;;;;;;15.90;14.10;;;;;;;7.85;100.00;99437.13;111734;1249;21968;-80
2023/11/12 07:27:16;;;;;;;12.90;11.80;;;;;;;7.81;100.00;99440.05;111830;1249;22020;-80
2023/11/12 07:29:55;;;;;;;13.40;12.00;;;;;;;7.82;100.00;99437.23;112032;1246;23030;-80
2023/11/12 07:32:45;;;;;;;14.00;12.90;;;;;;;7.82;100.00;99439.83;112246;1246;22348;-80
2023/11/12 07:35:25;;;;;;;15.50;13.90;;;;;;;7.86;100.00;99443.31;112347;1241;22941;-78
2023/11/12 07:38:01;;;;;;;14.60;13.40;;;;;;;7.89;100.00;99444.41;113316;1241;22310;-80
2023/11/12 07:40:48;;;;;;;15.30;13.80;;;;;;;7.88;100.00;99451.02;112825;1240;22825;-78
2023/11/12 07:43:25;;;;;;;14.90;13.70;;;;;;;7.84;100.00;99454.31;113372;1234;21966;-80
2023/11/12 07:45:58;;;;;;;16.20;14.70;;;;;;;7.83;100.00;99455.92;113715;1234;23543;-80
2023/11/12 07:48:37;;;;;;;15.00;13.80;;;;;;;7.85;100.00;99457.56;113609;1234;22966;-79
2023/11/12 07:51:09;;;;;;;15.30;13.90;;;;;;;7.87;100.00;99453.16;113766;1234;21961;-79
2023/11/12 07:53:52;;;;;;;19.70;17.70;;;;;;;7.90;100.00;99454.77;113565;1234;22407;-78
2023/11/12 07:56:32;;;;;;;22.40;20.00;;;;;;;7.93;100.00;99454.48;113797;1234;21925;-79
2023/11/12 07:59:13;;;;;;;18.10;16.20;;;;;;;7.93;100.00;99459.14;113718;1234;21985;-80
2023/11/12 08:01:49;;;;;;;18.50;16.80;;;;;;;7.90;100.00;99460.80;113658;1234;21984;-79
2023/11/12 08:04:48;;;;;;;17.70;16.20;;;;;;;7.88;100.00;99459.87;112887;1240;21968;-80
2023/11/12 08:07:28;;;;;;;19.20;17.20;;;;;;;7.88;100.00;99458.14;112921;1238;21953;-79
2023/11/12 08:10:21;;;;;;;20.30;18.30;;;;;;;7.86;100.00;99460.83;112922;1240;21954;-81
2023/11/12 08:13:07;;;;;;;17.90;16.50;;;;;;;7.87;100.00;99466.15;113081;1239;22308;-80
2023/11/12 08:15:59;;;;;;;18.30;16.50;;;;;;;7.85;100.00;99463.45;113013;1240;22707;-79
2023/11/12 08:18:39;;;;;;;18.20;16.50;;;;;;;7.86;100.00;99465.67;112853;1240;21964;-80
2023/11/12 08:21:24;;;;;;;19.60;17.80;;;;;;;7.86;100.00;99467.89;112834;1240;22947;-78
2023/11/12 08:24:05;;;;;;;19.40;17.70;;;;;;;7.89;100.00;99466.39;113544;1234;21934;-78
2023/11/12 08:27:14;;;;;;;20.10;18.40;;;;;;;7.94;100.00;99470.00;113393;1225;22473;-79
2023/11/12 08:29:45;;;;;;;21.50;19.70;;;;;;;7.97;100.00;99471.42;113376;1234;21942;-77
2023/11/12 08:32:31;;;;;;;20.80;18.70;;;;;;;7.99;100.00;99476.37;109317;1234;5235768;-78
2023/11/12 08:35:16;;;;;;;21.30;19.40;;;;;;;7.99;100.00;99481.04;113598;1233;23708;-78
2023/11/12 08:37:47;;;;;;;20.70;18.90;;;;;;;7.99;100.00;99483.14;113592;1234;21937;-78
2023/11/12 08:40:32;;;;;;;21.60;19.30;;;;;;;8.01;100.00;99485.48;113380;1234;21941;-79
2023/11/12 08:43:10;;;;;;;23.40;21.30;;;;;;;8.06;100.00;99491.34;112769;1239;22000;-78
2023/11/12 08:45:52;;;;;;;25.00;22.50;;;;;;;7.98;100.00;99480.41;113000;1239;23675;-80
2023/11/12 08:48:42;;;;;;;26.50;24.00;;;;;;;8.13;100.00;99504.77;113004;1239;21938;-79
2023/11/12 08:51:17;;;;;;;27.70;25.00;;;;;;;8.13;100.00;99503.86;112381;1244;23667;-79
2023/11/12 08:54:00;;;;;;;29.80;25.90;;;;;;;8.13;100.00;99503.02;111708;1250;21971;-80
2023/11/12 08:56:41;;;;;;;25.60;23.00;;;;;;;8.13;100.00;99504.94;111204;1256;22748;-77
2023/11/12 08:59:26;;;;;;;26.30;23.70;;;;;;;8.11;100.00;99511.22;110767;1262;21999;-78
2023/11/12 09:02:06;;;;;;;23.20;21.00;;;;;;;8.12;100.00;99513.10;110807;1258;22011;-81
2023/11/12 09:05:01;;;;;;;24.30;21.90;;;;;;;8.14;100.00;99511.15;110805;1259;24207;-79
2023/11/12 09:08:10;;;;;;;26.20;23.60;;;;;;;8.13;100.00;99509.08;110925;1259;22525;-80
2023/11/12 09:10:41;;;;;;;28.90;25.50;;;;;;;8.16;100.00;99514.48;111377;1253;23701;-80
2023/11/12 09:13:20;;;;;;;25.90;23.50;;;;;;;8.24;100.00;99512.27;112051;1247;21949;-80
2023/11/12 09:16:26;;;;;;;25.30;22.80;;;;;;;8.32;100.00;99514.20;113135;1240;23750;-81
2023/11/12 09:18:59;;;;;;;25.90;23.40;;;;;;;8.43;100.00;99518.45;113909;1234;22563;-83
2023/11/12 09:21:50;;;;;;;23.20;21.00;;;;;;;8.54;100.00;99517.64;114022;1234;21944;-81
2023/11/12 09:24:37;;;;;;;23.90;21.60;;;;;;;8.65;100.00;99513.52;113185;1241;21983;-82
2023/11/12 09:27:45;;;;;;;24.20;21.90;;;;;;;8.73;100.00;99513.89;113186;1240;23320;-81
2023/11/12 09:30:25;;;;;;;23.40;21.10;;;;;;;8.76;100.00;99512.33;113019;1241;22023;-80
2023/11/12 09:33:28;;;;;;;23.10;21.00;;;;;;;8.81;100.00;99514.91;113120;1241;23536;-82
2023/11/12 09:36:20;;;;;;;30.00;27.20;;;;;;;8.84;100.00;99516.71;112811;1241;23028;-81
2023/11/12 09:39:25;;;;;;;;;;;;;;;;;;;;;
2023/11/12 09:42:12;;;;;;;25.90;23.50;;;;;;;8.85;100.00;99516.98;112932;1234;22982;-82
2023/11/12 09:45:14;;;;;;;21.60;19.80;;;;;;;8.84;100.00;99520.33;113698;1234;23594;-80
2023/11/12 09:48:42;;;;;;;21.10;19.10;;;;;;;8.82;100.00;99516.08;113687;1234;22093;-81
2023/11/12 09:51:15;;;;;;;25.30;23.00;;;;;;;8.76;100.00;99512.70;113644;1234;22279;-81
2023/11/12 09:54:03;;;;;;;33.10;29.80;;;;;;;8.80;100.00;99512.34;113771;1234;23683;-80
2023/11/12 09:56:42;;;;;;;25.40;23.00;;;;;;;8.84;100.00;99510.98;113268;1240;21953;-81
2023/11/12 09:59:20;;;;;;;18.80;17.00;;;;;;;8.90;100.00;99514.16;112726;1245;21955;-82
2023/11/12 10:01:56;;;;;;;18.50;17.00;;;;;;;8.99;100.00;99511.51;112619;1245;23581;-83
2023/11/12 10:04:33;;;;;;;21.50;19.50;;;;;;;9.08;100.00;99510.24;112507;1245;22342;-81
2023/11/12 10:07:32;;;;;;;;;;;;;;;;;;;;;
2023/11/12 10:11:17;;;;;;;19.00;17.40;;;;;;;9.20;100.00;99505.89;112605;1245;21982;-80
2023/11/12 10:14:15;;;;;;;16.70;15.30;;;;;;;9.23;100.00;99507.84;112584;1239;22331;-81
2023/11/12 10:17:11;;;;;;;15.20;13.80;;;;;;;9.26;100.00;99504.40;113442;1234;24356;-80
2023/11/12 10:20:19;;;;;;;16.50;14.90;;;;;;;9.33;100.00;99505.13;113757;1234;23597;-82
2023/11/12 10:23:26;;;;;;;16.60;14.40;;;;;;;9.42;100.00;99504.37;113651;1234;24263;-81
2023/11/12 10:26:26;;;;;;;19.60;17.50;;;;;;;9.44;100.00;99500.25;113682;1233;21949;-82
2023/11/12 10:29:44;;;;;;;16.50;15.00;;;;;;;9.47;100.00;99498.04;113882;1234;21945;-81
2023/11/12 10:32:28;;;;;;;15.70;14.30;;;;;;;9.52;100.00;99496.42;113976;1234;21944;-81
2023/11/12 10:35:31;;;;;;;16.50;15.00;;;;;;;9.62;100.00;99492.30;113844;1234;22719;-79
2023/11/12 10:38:31;;;;;;;23.60;20.80;;;;;;;9.79;100.00;99492.19;113857;1233;21949;-80
2023/11/12 10:41:07;;;;;;;19.70;17.90;;;;;;;9.93;100.00;99489.94;113732;1234;23672;-80
2023/11/12 10:43:58;;;;;;;20.30;18.40;;;;;;;10.08;100.00;99492.00;113646;1234;24105;-81
2023/11/12 10:46:39;;;;;;;18.20;16.60;;;;;;;10.19;100.00;99486.74;113582;1234;22242;-79
2023/11/12 10:49:32;;;;;;;21.90;19.90;;;;;;;10.25;100.00;99487.16;113124;1239;23334;-80
2023/11/12 10:52:17;;;;;;;18.20;16.50;;;;;;;10.26;100.00;99493.18;112544;1245;24306;-81
2023/11/12 10:55:09;;;;;;;18.30;16.70;;;;;;;10.35;100.00;99496.77;111702;1251;21989;-80
2023/11/12 10:57:50;;;;;;;21.90;19.90;;;;;;;10.37;100.00;99494.08;111644;1251;21984;-80
2023/11/12 11:00:35;;;;;;;24.40;21.70;;;;;;;10.32;100.00;99492.05;111603;1251;22736;-81
2023/11/12 11:03:25;;;;;;;25.90;23.50;;;;;;;10.40;100.00;99491.10;111908;1251;24295;-80
2023/11/12 11:06:11;;;;;;;21.60;19.30;;;;;;;10.57;100.00;99489.04;111939;1251;23728;-80
2023/11/12 11:08:50;;;;;;;17.30;15.60;;;;;;;10.70;100.00;99491.52;112330;1246;23703;-81
2023/11/12 11:11:30;;;;;;;18.60;16.80;;;;;;;10.75;100.00;99489.16;113421;1241;21977;-82
2023/11/12 11:14:34;;;;;;;18.10;16.30;;;;;;;10.70;100.00;99487.13;113156;1241;23794;-81
2023/11/12 11:17:27;;;;;;;17.10;15.30;;;;;;;10.63;100.00;99484.05;112817;1241;22024;-81
2023/11/12 11:20:42;;;;;;;19.40;17.40;;;;;;;10.48;100.00;99484.45;113120;1241;21962;-83
2023/11/12 11:23:45;;;;;;;24.30;22.10;;;;;;;10.27;100.00;99487.09;112836;1241;21974;-80
2023/11/12 11:26:41;;;;;;;19.00;17.20;;;;;;;10.08;100.00;99481.75;112453;1244;22972;-81
2023/11/12 11:29:34;;;;;;;15.90;14.50;;;;;;;9.96;100.00;99484.59;111849;1242;23765;-81
2023/11/12 11:32:37;;;;;;;19.40;16.70;;;;;;;9.87;100.00;99489.91;112063;1248;21967;-80
2023/11/12 11:35:21;;;;;;;14.40;13.00;;;;;;;9.82;100.00;99494.98;112133;1248;22579;-82
2023/11/12 11:38:25;;;;;;;13.80;12.50;;;;;;;9.76;100.00;99496.15;111943;1254;22307;-81
2023/11/12 11:41:14;;;;;;;13.80;12.60;;;;;;;9.75;100.00;99496.89;111850;1253;21968;-80
2023/11/12 11:44:22;;;;;;;15.70;14.30;;;;;;;9.78;100.00;99498.48;111682;1253;22625;-82
2023/11/12 11:47:27;;;;;;;18.30;16.50;;;;;;;9.74;100.00;99499.22;112232;1246;21968;-81
2023/11/12 11:50:08;;;;;;;19.80;18.00;;;;;;;9.72;100.00;99493.58;112343;1249;22504;-80
2023/11/12 11:52:52;;;;;;;18.90;16.20;;;;;;;9.72;100.00;99496.33;112975;1250;21964;-82
2023/11/12 11:55:49;;;;;;;18.00;16.50;;;;;;;9.72;100.00;99496.33;112489;1244;21941;-82
2023/11/12 11:58:36;;;;;;;20.70;18.50;;;;;;;9.64;100.00;99486.98;112410;1244;22014;-81
2023/11/12 12:01:12;;;;;;;17.30;15.70;;;;;;;9.76;100.00;99501.71;112657;1244;21982;-82
2023/11/12 12:04:05;;;;;;;15.40;13.90;;;;;;;9.77;100.00;99503.05;113004;1240;21953;-81
2023/11/12 12:06:50;;;;;;;17.30;15.70;;;;;;;9.73;100.00;99506.16;112658;1245;22833;-83
2023/11/12 12:09:23;;;;;;;18.10;16.60;;;;;;;9.71;100.00;99500.55;112439;1246;22470;-80
2023/11/12 12:11:59;;;;;;;21.60;19.70;;;;;;;9.70;100.00;99506.34;112289;1247;22157;-81
2023/11/12 12:14:36;;;;;;;23.50;21.40;;;;;;;9.66;100.00;99505.30;111628;1251;22386;-81
2023/11/12 12:17:10;;;;;;;19.80;17.80;;;;;;;9.61;100.00;99507.64;111318;1256;22108;-81
2023/11/12 12:19:59;;;;;;;15.20;13.80;;;;;;;9.57;100.00;99510.95;111194;1256;21987;-81
2023/11/12 12:22:31;;;;;;;15.60;14.20;;;;;;;9.50;100.00;99511.80;111220;1256;21974;-80
2023/11/12 12:25:08;;;;;;;16.80;15.10;;;;;;;9.49;100.00;99513.59;111347;1254;23756;-80
2023/11/12 12:27:54;;;;;;;16.80;15.20;;;;;;;9.49;100.00;99517.07;111770;1249;21975;-82
2023/11/12 12:30:29;;;;;;;16.40;14.80;;;;;;;9.50;100.00;99520.81;111901;1246;21952;-80
2023/11/12 12:33:18;;;;;;;19.00;17.20;;;;;;;9.51;100.00;99519.56;112320;1246;23083;-80
2023/11/12 12:35:57;;;;;;;25.80;23.10;;;;;;;9.46;100.00;99519.95;112544;1239;21966;-80
2023/11/12 12:38:30;;;;;;;33.00;29.90;;;;;;;9.44;100.00;99515.92;112796;1239;22464;-82
2023/11/12 12:41:17;;;;;;;20.50;18.00;;;;;;;9.42;100.00;99514.80;113099;1239;23070;-80